createdAt,value
2019-03-11T00:01:11.289Z,81.97
2019-03-11T00:03:41.550Z,82.07
2019-03-11T00:06:11.807Z,82.01
2019-03-11T00:08:42.589Z,82.13
2019-03-11T00:11:13.024Z,81.88
2019-03-11T00:13:43.309Z,81.73
2019-03-11T00:16:15.003Z,81.59
2019-03-11T00:18:46.376Z,81.38
2019-03-11T00:21:16.555Z,81.06
2019-03-11T00:23:47.015Z,81.19
2019-03-11T00:26:17.169Z,81.08
2019-03-11T00:28:47.515Z,81.03
2019-03-11T00:31:18.682Z,80.78
2019-03-11T00:33:48.833Z,80.62
2019-03-11T00:36:19.053Z,80.65
2019-03-11T00:38:49.288Z,80.70
2019-03-11T00:41:19.652Z,81.07
2019-03-11T00:43:49.741Z,80.97
2019-03-11T00:46:19.845Z,81.10
2019-03-11T00:48:50.298Z,81.14
2019-03-11T00:51:20.370Z,81.30
2019-03-11T00:53:51.024Z,81.25
2019-03-11T00:56:21.083Z,81.24
2019-03-11T00:58:51.284Z,80.85
2019-03-11T01:01:21.549Z,80.92
2019-03-11T01:03:52.048Z,80.57
2019-03-11T01:06:22.397Z,80.47
2019-03-11T01:08:52.951Z,80.56
2019-03-11T01:11:23.638Z,80.62
2019-03-11T01:13:53.809Z,80.60
2019-03-11T01:16:23.919Z,80.69
2019-03-11T01:18:54.157Z,80.50
2019-03-11T01:21:24.268Z,80.59
2019-03-11T01:23:54.691Z,80.59
2019-03-11T01:26:24.838Z,80.62
2019-03-11T01:28:55.034Z,80.64
2019-03-11T01:31:25.118Z,80.75
2019-03-11T01:33:55.554Z,80.71
2019-03-11T01:36:26.158Z,80.59
2019-03-11T01:38:57.470Z,80.52
2019-03-11T01:41:27.949Z,80.61
2019-03-11T01:43:58.301Z,80.57
2019-03-11T01:46:28.618Z,80.79
2019-03-11T01:48:58.887Z,80.82
2019-03-11T01:51:29.166Z,80.98
2019-03-11T01:53:59.386Z,80.99
2019-03-11T01:56:29.769Z,80.94
2019-03-11T01:59:00.256Z,80.96
2019-03-11T02:01:30.589Z,81.11
2019-03-11T02:04:00.849Z,81.31
2019-03-11T02:06:32.008Z,81.37
2019-03-11T02:09:02.579Z,81.36
2019-03-11T02:11:34.309Z,81.54
2019-03-11T02:14:04.462Z,81.47
2019-03-11T02:16:34.783Z,81.33
2019-03-11T02:19:05.082Z,81.24
2019-03-11T02:21:36.248Z,81.49
2019-03-11T02:24:07.629Z,81.44
2019-03-11T02:26:38.167Z,81.60
2019-03-11T02:29:08.236Z,81.68
2019-03-11T02:31:38.389Z,81.72
2019-03-11T02:34:08.631Z,81.66
2019-03-11T02:36:39.119Z,81.95
2019-03-11T02:39:09.730Z,81.99
2019-03-11T02:41:40.097Z,81.79
2019-03-11T02:44:10.564Z,81.67
2019-03-11T02:46:40.820Z,81.54
2019-03-11T02:49:10.998Z,81.58
2019-03-11T02:51:41.342Z,81.47
2019-03-11T02:54:11.911Z,81.54
2019-03-11T02:56:42.338Z,81.50
2019-03-11T02:59:12.379Z,81.18
2019-03-11T03:01:47.377Z,81.03
2019-03-11T03:04:28.323Z,81.02
2019-03-11T03:06:58.798Z,80.81
2019-03-11T03:09:31.698Z,80.54
2019-03-11T03:12:01.148Z,80.62
2019-03-11T03:14:31.444Z,80.71
2019-03-11T03:17:01.525Z,80.70
2019-03-11T03:19:32.160Z,80.69
2019-03-11T03:22:02.563Z,80.64
2019-03-11T03:24:32.737Z,80.69
2019-03-11T03:27:03.196Z,80.75
2019-03-11T03:29:33.470Z,80.47
2019-03-11T03:32:03.713Z,80.42
2019-03-11T03:34:34.152Z,80.38
2019-03-11T03:37:04.940Z,80.58
2019-03-11T03:39:35.130Z,80.47
2019-03-11T03:42:05.600Z,80.49
2019-03-11T03:44:35.928Z,79.80
2019-03-11T03:47:06.133Z,78.88
2019-03-11T03:49:36.652Z,78.44
2019-03-11T03:52:07.024Z,78.54
2019-03-11T03:54:37.558Z,77.86
2019-03-11T03:57:07.796Z,77.18
2019-03-11T03:59:38.236Z,77.07
2019-03-11T04:02:08.815Z,76.40
2019-03-11T04:04:39.227Z,76.22
2019-03-11T04:07:09.625Z,75.63
2019-03-11T04:09:39.962Z,75.14
2019-03-11T04:12:10.319Z,74.97
2019-03-11T04:14:40.787Z,74.75
2019-03-11T04:17:11.106Z,74.54
2019-03-11T04:19:41.317Z,74.95
2019-03-11T04:22:11.526Z,75.25
2019-03-11T04:24:42.062Z,75.18
2019-03-11T04:27:12.323Z,74.83
2019-03-11T04:29:42.559Z,75.12
2019-03-11T04:32:12.841Z,75.27
2019-03-11T04:34:43.185Z,74.92
2019-03-11T04:37:13.275Z,75.02
2019-03-11T04:39:43.662Z,74.70
2019-03-11T04:42:13.836Z,73.65
2019-03-11T04:44:44.070Z,73.32
2019-03-11T04:47:14.375Z,73.62
2019-03-11T04:49:44.743Z,73.98
2019-03-11T04:52:14.941Z,73.54
2019-03-11T04:54:45.014Z,73.90
2019-03-11T04:57:15.283Z,73.65
2019-03-11T04:59:45.550Z,73.56
2019-03-11T05:02:15.781Z,73.41
2019-03-11T05:04:46.178Z,73.35
2019-03-11T05:07:16.470Z,73.52
2019-03-11T05:09:46.891Z,73.39
2019-03-11T05:12:17.254Z,73.13
2019-03-11T05:14:47.490Z,73.21
2019-03-11T05:17:17.903Z,73.36
2019-03-11T05:19:48.294Z,73.60
2019-03-11T05:22:18.585Z,73.51
2019-03-11T05:24:49.614Z,73.92
2019-03-11T05:27:19.783Z,74.28
2019-03-11T05:29:50.204Z,74.40
2019-03-11T05:32:20.372Z,74.77
2019-03-11T05:34:50.775Z,74.94
2019-03-11T05:37:21.228Z,74.78
2019-03-11T05:39:51.426Z,74.73
2019-03-11T05:42:21.593Z,74.61
2019-03-11T05:44:52.138Z,74.76
2019-03-11T05:47:22.371Z,74.80
2019-03-11T05:49:52.575Z,75.10
2019-03-11T05:52:22.738Z,74.84
2019-03-11T05:54:52.991Z,74.69
2019-03-11T05:57:23.362Z,74.79
2019-03-11T05:59:53.555Z,75.05
2019-03-11T06:02:23.621Z,74.75
2019-03-11T06:04:53.694Z,74.98
2019-03-11T06:07:23.779Z,74.73
2019-03-11T06:09:54.268Z,74.52
2019-03-11T06:12:24.326Z,74.30
2019-03-11T06:14:54.701Z,74.62
2019-03-11T06:17:25.027Z,74.57
2019-03-11T06:19:59.594Z,74.90
2019-03-11T06:22:29.822Z,74.63
2019-03-11T06:25:00.346Z,74.62
2019-03-11T06:27:30.639Z,74.46
2019-03-11T06:30:00.856Z,73.99
2019-03-11T06:32:31.307Z,72.83
2019-03-11T06:35:01.869Z,72.60
2019-03-11T06:37:31.996Z,71.95
2019-03-11T06:40:02.451Z,72.08
2019-03-11T06:42:33.012Z,71.19
2019-03-11T06:45:03.173Z,70.83
2019-03-11T06:47:33.432Z,70.70
2019-03-11T06:50:03.860Z,69.56
2019-03-11T06:52:34.194Z,68.32
2019-03-11T06:55:04.646Z,68.43
2019-03-11T06:57:35.197Z,67.04
2019-03-11T07:00:06.514Z,66.40
2019-03-11T07:02:36.789Z,66.99
2019-03-11T07:05:07.059Z,67.18
2019-03-11T07:07:37.197Z,67.59
2019-03-11T07:10:08.655Z,68.31
2019-03-11T07:12:39.067Z,69.33
2019-03-11T07:15:09.522Z,67.15
2019-03-11T07:17:40.100Z,66.01
2019-03-11T07:20:11.883Z,66.65
2019-03-11T07:22:42.282Z,67.52
2019-03-11T07:25:12.744Z,66.46
2019-03-11T07:27:42.924Z,67.43
2019-03-11T07:30:14.218Z,66.22
2019-03-11T07:32:44.691Z,66.24
2019-03-11T07:35:15.292Z,66.32
2019-03-11T07:37:45.511Z,65.42
2019-03-11T07:40:15.984Z,65.11
2019-03-11T07:42:46.166Z,64.74
2019-03-11T07:45:16.838Z,63.93
2019-03-11T07:47:47.005Z,63.51
2019-03-11T07:50:17.604Z,62.79
2019-03-11T07:52:48.029Z,59.97
2019-03-11T07:55:18.235Z,56.88
2019-03-11T07:57:48.614Z,55.79
2019-03-11T08:00:18.875Z,53.65
2019-03-11T08:02:49.056Z,47.92
2019-03-11T08:05:19.329Z,47.69
2019-03-11T08:07:49.690Z,47.84
2019-03-11T08:10:20.083Z,48.71
2019-03-11T08:12:51.150Z,50.35
2019-03-11T08:15:21.419Z,49.95
2019-03-11T08:17:51.641Z,51.68
2019-03-11T08:20:21.738Z,53.47
2019-03-11T08:22:52.063Z,53.88
2019-03-11T08:25:22.188Z,54.20
2019-03-11T08:27:52.555Z,56.25
2019-03-11T08:30:23.253Z,56.95
2019-03-11T08:32:53.603Z,54.10
2019-03-11T08:35:23.763Z,50.43
2019-03-11T08:37:54.128Z,51.87
2019-03-11T08:40:24.528Z,52.35
2019-03-11T08:42:54.911Z,52.48
2019-03-11T08:45:25.008Z,53.30
2019-03-11T08:47:55.235Z,54.08
2019-03-11T08:50:25.870Z,51.17
2019-03-11T08:52:57.012Z,52.40
2019-03-11T08:55:27.295Z,50.78
2019-03-11T08:57:57.575Z,48.18
2019-03-11T09:00:28.083Z,51.00
2019-03-11T09:02:58.321Z,52.91
2019-03-11T09:05:28.422Z,53.77
2019-03-11T09:07:58.585Z,52.08
2019-03-11T09:10:28.993Z,52.27
2019-03-11T09:12:59.338Z,55.37
2019-03-11T09:15:29.763Z,54.81
2019-03-11T09:18:00.232Z,52.97
2019-03-11T09:20:30.617Z,53.84
2019-03-11T09:23:00.900Z,51.06
2019-03-11T09:25:31.261Z,49.33
2019-03-11T09:28:02.674Z,50.40
2019-03-11T09:30:33.062Z,51.09
2019-03-11T09:33:03.550Z,49.78
2019-03-11T09:35:33.911Z,47.71
2019-03-11T09:38:04.358Z,49.74
2019-03-11T09:40:35.023Z,48.75
2019-03-11T09:43:05.206Z,48.35
2019-03-11T09:45:35.853Z,49.78
2019-03-11T09:48:06.169Z,48.83
2019-03-11T09:50:36.682Z,47.73
2019-03-11T09:53:07.027Z,47.95
2019-03-11T09:55:37.610Z,48.10
2019-03-11T09:58:08.229Z,49.92
2019-03-11T10:00:39.074Z,50.17
2019-03-11T10:03:09.550Z,50.75
2019-03-11T10:05:39.817Z,50.10
2019-03-11T10:08:11.005Z,48.73
2019-03-11T10:10:41.757Z,46.19
2019-03-11T10:13:12.202Z,48.84
2019-03-11T10:15:43.184Z,46.08
2019-03-11T10:18:13.551Z,46.67
2019-03-11T10:20:43.952Z,44.35
2019-03-11T10:23:14.441Z,44.77
2019-03-11T10:25:44.949Z,45.02
2019-03-11T10:28:16.702Z,45.62
2019-03-11T10:30:47.941Z,43.83
2019-03-11T10:33:18.547Z,43.05
2019-03-11T10:35:49.259Z,43.97
2019-03-11T10:38:19.847Z,46.80
2019-03-11T10:40:50.444Z,48.07
2019-03-11T10:43:20.991Z,49.78
2019-03-11T10:45:51.482Z,48.44
2019-03-11T10:48:22.265Z,45.54
2019-03-11T10:50:52.766Z,45.88
2019-03-11T10:53:23.555Z,44.69
2019-03-11T10:55:53.933Z,42.63
2019-03-11T10:58:24.193Z,43.77
2019-03-11T11:00:54.547Z,42.86
2019-03-11T11:03:24.692Z,42.61
2019-03-11T11:05:54.953Z,42.78
2019-03-11T11:08:25.467Z,41.69
2019-03-11T11:10:55.778Z,40.88
2019-03-11T11:13:26.022Z,41.19
2019-03-11T11:15:56.687Z,41.29
2019-03-11T11:18:26.947Z,38.78
2019-03-11T11:20:58.102Z,39.59
2019-03-11T11:23:28.419Z,39.32
2019-03-11T11:25:58.890Z,39.69
2019-03-11T11:28:29.149Z,37.12
2019-03-11T11:30:59.301Z,36.65
2019-03-11T11:33:29.542Z,38.31
2019-03-11T11:35:59.994Z,39.22
2019-03-11T11:38:30.312Z,38.86
2019-03-11T11:41:00.603Z,39.45
2019-03-11T11:43:30.927Z,38.74
2019-03-11T11:46:01.039Z,39.35
2019-03-11T11:48:31.271Z,37.74
2019-03-11T11:51:01.607Z,38.24
2019-03-11T11:53:32.062Z,38.85
2019-03-11T11:56:03.361Z,42.10
2019-03-11T11:58:33.484Z,41.15
2019-03-11T12:01:04.559Z,42.79
2019-03-11T12:03:34.984Z,45.15
2019-03-11T12:06:05.168Z,43.02
2019-03-11T12:08:35.287Z,42.55
2019-03-11T12:11:06.862Z,42.74
2019-03-11T12:13:38.333Z,45.04
2019-03-11T12:16:09.327Z,45.17
2019-03-11T12:18:39.776Z,43.93
2019-03-11T12:21:10.423Z,46.48
2019-03-11T12:23:46.182Z,44.63
2019-03-11T12:26:12.514Z,46.99
2019-03-11T12:28:42.941Z,46.76
2019-03-11T12:31:13.021Z,48.02
2019-03-11T12:33:43.574Z,49.79
2019-03-11T12:36:13.871Z,49.60
2019-03-11T12:38:44.019Z,50.90
2019-03-11T12:41:14.969Z,49.71
2019-03-11T12:43:45.152Z,49.84
2019-03-11T12:46:17.055Z,47.58
2019-03-11T12:48:47.482Z,47.18
2019-03-11T12:51:17.829Z,49.41
2019-03-11T12:53:48.310Z,49.33
2019-03-11T12:56:18.428Z,49.82
2019-03-11T12:58:48.760Z,50.88
2019-03-11T13:01:18.982Z,51.86
2019-03-11T13:03:50.768Z,50.13
2019-03-11T13:06:21.168Z,50.73
2019-03-11T13:08:52.170Z,50.28
2019-03-11T13:11:22.302Z,49.64
2019-03-11T13:13:52.488Z,48.71
2019-03-11T13:16:22.786Z,49.33
2019-03-11T13:18:54.911Z,49.05
2019-03-11T13:21:31.926Z,49.15
2019-03-11T13:24:02.345Z,50.43
2019-03-11T13:26:33.281Z,50.18
2019-03-11T13:29:03.693Z,51.84
2019-03-11T13:31:34.161Z,52.56
2019-03-11T13:34:04.553Z,52.57
2019-03-11T13:36:34.886Z,53.15
2019-03-11T13:39:07.159Z,55.95
2019-03-11T13:41:37.738Z,57.69
2019-03-11T13:44:08.310Z,57.66
2019-03-11T13:46:38.633Z,57.76
2019-03-11T13:49:09.197Z,58.17
2019-03-11T13:51:39.444Z,57.54
2019-03-11T13:54:10.084Z,57.26
2019-03-11T13:56:40.500Z,58.73
2019-03-11T13:59:11.023Z,58.41
2019-03-11T14:01:41.538Z,59.86
2019-03-11T14:04:13.431Z,59.49
2019-03-11T14:06:44.789Z,58.81
2019-03-11T14:09:16.330Z,59.07
2019-03-11T14:11:48.577Z,56.28
2019-03-11T14:14:20.102Z,57.20
2019-03-11T14:16:51.853Z,57.40
2019-03-11T14:19:25.156Z,58.00
2019-03-11T14:21:56.964Z,57.79
2019-03-11T14:24:28.627Z,57.73
2019-03-11T14:27:00.106Z,57.53
2019-03-11T14:29:31.650Z,57.68
2019-03-11T14:32:03.576Z,57.97
2019-03-11T14:34:35.304Z,57.84
2019-03-11T14:37:06.765Z,57.76
2019-03-11T14:39:39.542Z,57.67
2019-03-11T14:42:12.323Z,57.37
2019-03-11T14:44:43.948Z,58.08
2019-03-11T14:47:15.714Z,57.90
2019-03-11T14:49:46.240Z,58.39
2019-03-11T14:52:16.732Z,57.67
2019-03-11T14:54:47.232Z,58.44
2019-03-11T14:57:17.450Z,58.17
2019-03-11T14:59:47.680Z,58.76
2019-03-11T15:02:19.047Z,59.03
2019-03-11T15:04:51.300Z,58.77
2019-03-11T15:07:23.693Z,58.59
2019-03-11T15:09:55.634Z,58.91
2019-03-11T15:12:27.038Z,59.45
2019-03-11T15:14:58.744Z,59.13
2019-03-11T15:17:30.317Z,59.85
2019-03-11T15:20:02.247Z,59.61
2019-03-11T15:22:35.044Z,59.71
2019-03-11T15:25:08.022Z,59.79
2019-03-11T15:27:39.818Z,60.10
2019-03-11T15:30:15.296Z,60.61
2019-03-11T15:32:48.034Z,60.86
2019-03-11T15:35:19.595Z,61.48
2019-03-11T15:37:51.297Z,61.07
2019-03-11T15:40:23.135Z,61.14
2019-03-11T15:42:54.743Z,61.44
2019-03-11T15:45:26.271Z,61.59
2019-03-11T15:47:56.736Z,61.45
2019-03-11T15:50:27.261Z,61.85
2019-03-11T15:52:57.847Z,61.63
2019-03-11T15:55:28.227Z,61.48
2019-03-11T15:57:59.812Z,61.72
2019-03-11T16:00:31.590Z,62.19
2019-03-11T16:03:03.420Z,63.06
2019-03-11T16:05:35.359Z,63.04
2019-03-11T16:08:07.403Z,63.49
2019-03-11T16:10:38.919Z,63.46
2019-03-11T16:13:10.562Z,63.78
2019-03-11T16:15:41.958Z,64.29
2019-03-11T16:18:13.509Z,64.01
2019-03-11T16:20:45.546Z,63.60
2019-03-11T16:23:17.352Z,64.01
2019-03-11T16:25:48.993Z,64.35
2019-03-11T16:28:20.888Z,64.97
2019-03-11T16:30:52.372Z,64.94
2019-03-11T16:33:24.227Z,65.33
2019-03-11T16:35:55.869Z,65.25
2019-03-11T16:38:27.250Z,65.41
2019-03-11T16:40:59.091Z,65.89
2019-03-11T16:43:30.561Z,66.27
2019-03-11T16:46:04.490Z,66.59
2019-03-11T16:48:35.722Z,66.77
2019-03-11T16:51:07.391Z,67.05
2019-03-11T16:53:39.046Z,66.97
2019-03-11T16:56:10.925Z,67.10
2019-03-11T16:58:42.779Z,66.48
2019-03-11T17:01:14.356Z,66.74
2019-03-11T17:03:45.971Z,66.49
2019-03-11T17:06:18.588Z,66.74
2019-03-11T17:08:50.560Z,66.94
2019-03-11T17:11:21.887Z,67.03
2019-03-11T17:13:53.514Z,67.36
2019-03-11T17:16:25.403Z,67.77
2019-03-11T17:18:57.214Z,68.17
2019-03-11T17:21:28.855Z,68.40
2019-03-11T17:24:00.309Z,68.60
2019-03-11T17:26:32.177Z,68.64
2019-03-11T17:29:03.829Z,68.79
2019-03-11T17:31:35.979Z,69.26
2019-03-11T17:34:07.553Z,69.18
2019-03-11T17:36:39.234Z,69.76
2019-03-11T17:39:11.555Z,70.21
2019-03-11T17:41:43.220Z,70.21
2019-03-11T17:44:15.348Z,70.42
2019-03-11T17:46:47.015Z,70.73
2019-03-11T17:49:18.660Z,70.59
2019-03-11T17:51:50.184Z,71.05
2019-03-11T17:54:22.681Z,71.17
2019-03-11T17:56:54.452Z,71.27
2019-03-11T17:59:25.807Z,71.74
2019-03-11T18:01:57.756Z,71.67
2019-03-11T18:04:29.884Z,72.08
2019-03-11T18:07:01.492Z,72.03
2019-03-11T18:09:33.601Z,72.52
2019-03-11T18:12:05.608Z,72.33
2019-03-11T18:14:37.839Z,72.28
2019-03-11T18:17:09.456Z,72.60
2019-03-11T18:19:41.162Z,72.68
2019-03-11T18:22:12.717Z,73.13
2019-03-11T18:24:44.830Z,73.26
2019-03-11T18:27:16.678Z,73.60
2019-03-11T18:29:48.629Z,73.81
2019-03-11T18:32:20.518Z,74.06
2019-03-11T18:34:52.259Z,74.31
2019-03-11T18:37:23.800Z,74.46
2019-03-11T18:39:55.450Z,74.56
2019-03-11T18:42:28.398Z,75.22
2019-03-11T18:45:00.393Z,75.36
2019-03-11T18:47:32.253Z,75.68
2019-03-11T18:50:04.335Z,76.02
2019-03-11T18:52:35.969Z,76.04
2019-03-11T18:55:09.524Z,76.38
2019-03-11T18:57:41.893Z,76.37
2019-03-11T19:00:14.956Z,76.92
2019-03-11T19:02:46.983Z,77.20
2019-03-11T19:05:19.567Z,77.17
2019-03-11T19:07:54.933Z,77.56
2019-03-11T19:10:26.135Z,77.66
2019-03-11T19:12:57.976Z,78.06
2019-03-11T19:15:29.732Z,78.07
2019-03-11T19:18:02.001Z,78.36
2019-03-11T19:20:33.675Z,78.53
2019-03-11T19:23:05.584Z,79.02
2019-03-11T19:25:37.730Z,79.21
2019-03-11T19:28:09.576Z,79.29
2019-03-11T19:30:41.612Z,79.52
2019-03-11T19:33:13.033Z,79.29
2019-03-11T19:35:44.615Z,79.23
2019-03-11T19:38:16.398Z,79.17
2019-03-11T19:40:48.062Z,79.43
2019-03-11T19:43:19.784Z,79.39
2019-03-11T19:45:51.341Z,79.13
2019-03-11T19:48:25.161Z,78.94
2019-03-11T19:50:56.716Z,79.17
2019-03-11T19:53:28.783Z,79.32
2019-03-11T19:56:00.390Z,79.57
2019-03-11T19:58:32.203Z,79.64
2019-03-11T20:01:05.706Z,79.68
2019-03-11T20:03:37.392Z,79.70
2019-03-11T20:06:09.180Z,79.92
2019-03-11T20:08:41.365Z,79.70
2019-03-11T20:11:13.441Z,79.58
2019-03-11T20:13:45.118Z,79.50
2019-03-11T20:16:17.999Z,79.46
2019-03-11T20:18:50.002Z,79.26
2019-03-11T20:21:21.844Z,79.39
2019-03-11T20:23:53.311Z,79.36
2019-03-11T20:26:25.116Z,79.59
2019-03-11T20:28:56.665Z,79.45
2019-03-11T20:31:28.365Z,79.35
2019-03-11T20:34:00.160Z,79.45
2019-03-11T20:36:31.989Z,79.13
2019-03-11T20:39:04.688Z,79.19
2019-03-11T20:41:38.141Z,79.01
2019-03-11T20:44:09.886Z,79.14
2019-03-11T20:46:42.000Z,79.29
2019-03-11T20:49:13.639Z,79.23
2019-03-11T20:51:45.119Z,79.29
2019-03-11T20:54:16.801Z,79.53
2019-03-11T20:56:48.367Z,79.36
2019-03-11T20:59:19.995Z,79.80
2019-03-11T21:01:51.650Z,79.50
2019-03-11T21:04:23.553Z,79.73
2019-03-11T21:06:55.268Z,79.63
2019-03-11T21:09:26.736Z,79.72
2019-03-11T21:11:57.177Z,79.67
2019-03-11T21:14:27.426Z,79.71
2019-03-11T21:16:57.670Z,79.72
2019-03-11T21:19:28.133Z,79.82
2019-03-11T21:21:58.412Z,79.88
2019-03-11T21:24:29.584Z,79.84
2019-03-11T21:27:00.267Z,79.64
2019-03-11T21:29:32.919Z,79.57
2019-03-11T21:32:03.774Z,79.56
2019-03-11T21:34:34.345Z,79.69
2019-03-11T21:37:04.872Z,79.91
2019-03-11T21:39:35.627Z,79.95
2019-03-11T21:42:06.568Z,79.81
2019-03-11T21:44:36.891Z,80.02
2019-03-11T21:47:09.951Z,80.34
2019-03-11T21:49:40.291Z,80.30
2019-03-11T21:52:10.493Z,80.24
2019-03-11T21:54:40.896Z,80.50
2019-03-11T21:57:11.099Z,80.42
2019-03-11T21:59:41.370Z,80.37
2019-03-11T22:02:11.751Z,80.21
2019-03-11T22:04:41.850Z,80.33
2019-03-11T22:07:12.471Z,80.24
2019-03-11T22:09:42.673Z,80.12
2019-03-11T22:12:14.722Z,79.97
2019-03-11T22:14:44.883Z,79.77
2019-03-11T22:17:15.056Z,79.60
2019-03-11T22:19:45.535Z,79.46
2019-03-11T22:22:15.629Z,79.22
2019-03-11T22:24:46.098Z,79.11
2019-03-11T22:27:16.320Z,78.99
2019-03-11T22:29:46.682Z,79.12
2019-03-11T22:32:16.985Z,79.15
2019-03-11T22:34:47.439Z,79.15
2019-03-11T22:37:17.971Z,78.86
2019-03-11T22:39:48.413Z,79.13
2019-03-11T22:42:19.804Z,79.17
2019-03-11T22:44:50.064Z,79.18
2019-03-11T22:47:20.417Z,79.30
2019-03-11T22:49:50.604Z,79.25
2019-03-11T22:52:20.879Z,79.27
2019-03-11T22:54:51.382Z,79.37
2019-03-11T22:57:21.829Z,79.37
2019-03-11T22:59:52.069Z,79.66
2019-03-11T23:02:22.254Z,79.78
2019-03-11T23:04:52.735Z,79.46
2019-03-11T23:07:23.406Z,79.63
2019-03-11T23:09:53.529Z,79.86
2019-03-11T23:12:25.161Z,79.80
2019-03-11T23:14:55.466Z,79.91
2019-03-11T23:17:25.573Z,79.92
2019-03-11T23:19:55.768Z,79.97
2019-03-11T23:22:26.206Z,79.87
2019-03-11T23:24:56.461Z,80.08
2019-03-11T23:27:26.658Z,80.43
2019-03-11T23:29:56.853Z,80.24
2019-03-11T23:32:27.567Z,80.17
2019-03-11T23:34:57.848Z,80.46
2019-03-11T23:37:28.356Z,80.37
2019-03-11T23:39:58.792Z,80.31
2019-03-11T23:42:28.935Z,80.33
2019-03-11T23:44:59.445Z,80.50
2019-03-11T23:47:29.914Z,80.47
2019-03-11T23:50:00.689Z,80.46
2019-03-11T23:52:31.301Z,80.65
2019-03-11T23:55:01.730Z,80.86
2019-03-11T23:57:32.358Z,80.68
